Powell, Tennessee
Current Conditions -  °F | °C
As of 4:53 PM on Sunday 21 Dec 2014 (Local Time) from KOQT Reporting Station
Broken Clouds Broken Clouds  
Wind Chill: 49°   Ceiling: 4100
Heat Index: 49°   Visibility: 10mi
Dew Point: 34°   Wind: 3mph
Humidity: 56%   Direction: 90°E
Pressure: 30.12"   Gusts: NA
Location:  36.03°N, 84.03°W
Report Text: KOQT 212153Z AUTO 09003KT 10SM BKN041 09/01 A3012 RMK AO2 SLP210 T00940011
Loading
Personal Weather Stations






























Interactive Weather Map New forecast layout! Learn more

10-Day Weather Forecast

Advertisements
Track Severe Weather on mobile